createdAt,value
2018-11-13T00:00:06.177Z,1002.19
2018-11-13T00:01:06.198Z,1002.23
2018-11-13T00:02:06.222Z,1002.23
2018-11-13T00:03:06.243Z,1002.27
2018-11-13T00:04:06.265Z,1002.32
2018-11-13T00:05:06.287Z,1002.32
2018-11-13T00:06:06.309Z,1002.31
2018-11-13T00:07:06.336Z,1002.35
2018-11-13T00:08:06.354Z,1002.34
2018-11-13T00:09:06.382Z,1002.33
2018-11-13T00:10:06.397Z,1002.34
2018-11-13T00:11:06.429Z,1002.34
2018-11-13T00:12:06.447Z,1002.37
2018-11-13T00:13:06.476Z,1002.34
2018-11-13T00:14:06.492Z,1002.31
2018-11-13T00:15:06.516Z,1002.36
2018-11-13T00:16:06.534Z,1002.3
2018-11-13T00:17:06.557Z,1002.26
2018-11-13T00:18:06.582Z,1002.28
2018-11-13T00:19:06.601Z,1002.27
2018-11-13T00:20:06.623Z,1002.28
2018-11-13T00:21:06.647Z,1002.3
2018-11-13T00:22:06.669Z,1002.25
2018-11-13T00:23:06.690Z,1002.28
2018-11-13T00:24:06.837Z,1002.28
2018-11-13T00:25:06.735Z,1002.26
2018-11-13T00:26:06.759Z,1002.26
2018-11-13T00:27:06.781Z,1002.22
2018-11-13T00:28:06.802Z,1002.19
2018-11-13T00:29:06.824Z,1002.18
2018-11-13T00:30:06.847Z,1002.19
2018-11-13T00:31:06.870Z,1002.14
2018-11-13T00:32:06.891Z,1002.14
2018-11-13T00:33:06.913Z,1002.15
2018-11-13T00:34:06.936Z,1002.11
2018-11-13T00:35:06.959Z,1002.15
2018-11-13T00:36:06.985Z,1002.21
2018-11-13T00:37:07.004Z,1002.3
2018-11-13T00:38:07.028Z,1002.42
2018-11-13T00:39:07.062Z,1002.53
2018-11-13T00:40:07.074Z,1002.59
2018-11-13T00:41:07.096Z,1002.59
2018-11-13T00:42:07.118Z,1002.61
2018-11-13T00:43:07.139Z,1002.65
2018-11-13T00:44:07.160Z,1002.68
2018-11-13T00:45:07.187Z,1002.74
2018-11-13T00:46:07.299Z,1002.71
2018-11-13T00:47:07.228Z,1002.7
2018-11-13T00:48:07.251Z,1002.69
2018-11-13T00:49:07.274Z,1002.7
2018-11-13T00:50:07.313Z,1002.76
2018-11-13T00:51:07.321Z,1002.78
2018-11-13T00:52:07.340Z,1002.77
2018-11-13T00:53:07.363Z,1002.8
2018-11-13T00:54:07.384Z,1002.82
2018-11-13T00:55:07.406Z,1002.83
2018-11-13T00:56:07.433Z,1002.81
2018-11-13T00:57:07.454Z,1002.81
2018-11-13T00:58:07.487Z,1002.81
2018-11-13T00:59:07.498Z,1002.74
2018-11-13T01:00:07.524Z,1002.7
2018-11-13T01:01:07.542Z,1002.61
2018-11-13T01:02:08.084Z,1002.58
2018-11-13T01:03:07.586Z,1002.58
2018-11-13T01:04:07.612Z,1002.64
2018-11-13T01:05:07.708Z,1002.7
2018-11-13T01:06:07.657Z,1002.77
2018-11-13T01:07:07.677Z,1002.78
2018-11-13T01:08:07.703Z,1002.76
2018-11-13T01:09:07.720Z,1002.76
2018-11-13T01:10:07.743Z,1002.81
2018-11-13T01:11:07.766Z,1002.8
2018-11-13T01:12:07.787Z,1002.79
2018-11-13T01:13:07.812Z,1002.79
2018-11-13T01:14:07.833Z,1002.79
2018-11-13T01:15:08.280Z,1002.72
2018-11-13T01:16:07.878Z,1002.72
2018-11-13T01:17:07.904Z,1002.71
2018-11-13T01:18:07.924Z,1002.68
2018-11-13T01:19:07.946Z,1002.71
2018-11-13T01:20:07.970Z,1002.74
2018-11-13T01:21:07.991Z,1002.76
2018-11-13T01:22:08.014Z,1002.75
2018-11-13T01:23:08.039Z,1002.83
2018-11-13T01:24:08.062Z,1002.79
2018-11-13T01:25:08.084Z,1002.77
2018-11-13T01:26:08.104Z,1002.74
2018-11-13T01:27:08.124Z,1002.73
2018-11-13T01:28:08.151Z,1002.75
2018-11-13T01:29:08.171Z,1002.82
2018-11-13T01:30:08.193Z,1002.85
2018-11-13T01:31:08.219Z,1002.88
2018-11-13T01:32:08.237Z,1002.91
2018-11-13T01:33:08.263Z,1002.9
2018-11-13T01:34:08.282Z,1002.91
2018-11-13T01:35:08.308Z,1002.84
2018-11-13T01:36:08.326Z,1002.84
2018-11-13T01:37:08.348Z,1002.83
2018-11-13T01:38:08.373Z,1002.83
2018-11-13T01:39:08.393Z,1002.83
2018-11-13T01:40:08.420Z,1002.82
2018-11-13T01:41:08.444Z,1002.82
2018-11-13T01:42:08.461Z,1002.82
2018-11-13T01:43:08.481Z,1002.75
2018-11-13T01:44:08.506Z,1002.71
2018-11-13T01:45:08.528Z,1002.75
2018-11-13T01:46:08.555Z,1002.71
2018-11-13T01:47:08.572Z,1002.69
2018-11-13T01:48:08.921Z,1002.73
2018-11-13T01:49:08.617Z,1002.72
2018-11-13T01:50:08.643Z,1002.74
2018-11-13T01:51:08.662Z,1002.69
2018-11-13T01:52:08.687Z,1002.65
2018-11-13T01:53:08.706Z,1002.69
2018-11-13T01:54:08.732Z,1002.62
2018-11-13T01:55:08.755Z,1002.58
2018-11-13T01:56:08.774Z,1002.59
2018-11-13T01:57:08.867Z,1002.54
2018-11-13T01:58:08.820Z,1002.55
2018-11-13T01:59:08.848Z,1002.57
2018-11-13T02:00:08.863Z,1002.58
2018-11-13T02:01:08.890Z,1002.58
2018-11-13T02:02:08.911Z,1002.59
2018-11-13T02:03:08.931Z,1002.53
2018-11-13T02:04:08.953Z,1002.5
2018-11-13T02:05:08.976Z,1002.45
2018-11-13T02:06:09.005Z,1002.41
2018-11-13T02:07:09.019Z,1002.38
2018-11-13T02:08:09.043Z,1002.43
2018-11-13T02:09:09.065Z,1002.35
2018-11-13T02:10:09.087Z,1002.32
2018-11-13T02:11:09.109Z,1002.35
2018-11-13T02:12:09.136Z,1002.31
2018-11-13T02:13:09.154Z,1002.33
2018-11-13T02:14:09.176Z,1002.34
2018-11-13T02:15:09.199Z,1002.34
2018-11-13T02:16:09.221Z,1002.31
2018-11-13T02:17:09.251Z,1002.27
2018-11-13T02:18:09.266Z,1002.29
2018-11-13T02:19:09.290Z,1002.27
2018-11-13T02:20:09.311Z,1002.27
2018-11-13T02:21:09.332Z,1002.28
2018-11-13T02:22:09.355Z,1002.23
2018-11-13T02:23:09.378Z,1002.17
2018-11-13T02:24:09.399Z,1002.1
2018-11-13T02:25:09.429Z,1002.04
2018-11-13T02:26:09.443Z,1001.99
2018-11-13T02:27:09.469Z,1001.95
2018-11-13T02:28:09.488Z,1002
2018-11-13T02:29:09.513Z,1002.08
2018-11-13T02:30:09.533Z,1002.25
2018-11-13T02:31:09.561Z,1002.26
2018-11-13T02:32:09.588Z,1002.32
2018-11-13T02:33:09.600Z,1002.32
2018-11-13T02:34:09.628Z,1002.33
2018-11-13T02:35:09.679Z,1002.38
2018-11-13T02:36:09.669Z,1002.34
2018-11-13T02:37:09.694Z,1002.29
2018-11-13T02:38:09.712Z,1002.26
2018-11-13T02:39:09.739Z,1002.26
2018-11-13T02:40:09.757Z,1002.23
2018-11-13T02:41:09.783Z,1002.22
2018-11-13T02:42:09.801Z,1002.23
2018-11-13T02:43:09.826Z,1002.26
2018-11-13T02:44:09.852Z,1002.29
2018-11-13T02:45:09.869Z,1002.33
2018-11-13T02:46:09.892Z,1002.31
2018-11-13T02:47:09.914Z,1002.32
2018-11-13T02:48:10.047Z,1002.34
2018-11-13T02:49:10.004Z,1002.36
2018-11-13T02:50:09.998Z,1002.39
2018-11-13T02:51:10.011Z,1002.43
2018-11-13T02:52:10.029Z,1002.38
2018-11-13T02:53:10.048Z,1002.37
2018-11-13T02:54:10.072Z,1002.37
2018-11-13T02:55:10.094Z,1002.32
2018-11-13T02:56:10.122Z,1002.28
2018-11-13T02:57:10.143Z,1002.27
2018-11-13T02:58:10.168Z,1002.29
2018-11-13T02:59:10.182Z,1002.27
2018-11-13T03:00:10.204Z,1002.27
2018-11-13T03:01:10.230Z,1002.3
2018-11-13T03:02:10.251Z,1002.29
2018-11-13T03:03:10.277Z,1002.29
2018-11-13T03:04:10.293Z,1002.34
2018-11-13T03:05:10.316Z,1002.36
2018-11-13T03:06:10.343Z,1002.42
2018-11-13T03:07:10.360Z,1002.46
2018-11-13T03:08:10.385Z,1002.49
2018-11-13T03:09:10.404Z,1002.47
2018-11-13T03:10:10.428Z,1002.47
2018-11-13T03:11:10.450Z,1002.5
2018-11-13T03:12:10.473Z,1002.55
2018-11-13T03:13:10.531Z,1002.57
2018-11-13T03:14:10.518Z,1002.59
2018-11-13T03:15:10.543Z,1002.56
2018-11-13T03:16:10.566Z,1002.52
2018-11-13T03:17:10.585Z,1002.54
2018-11-13T03:18:10.607Z,1002.49
2018-11-13T03:19:10.630Z,1002.48
2018-11-13T03:20:10.656Z,1002.43
2018-11-13T03:21:10.680Z,1002.42
2018-11-13T03:22:10.696Z,1002.42
2018-11-13T03:23:10.720Z,1002.45
2018-11-13T03:24:10.744Z,1002.46
2018-11-13T03:25:10.766Z,1002.51
2018-11-13T03:26:10.784Z,1002.55
2018-11-13T03:27:10.811Z,1002.57
2018-11-13T03:28:10.833Z,1002.59
2018-11-13T03:29:10.862Z,1002.62
2018-11-13T03:30:10.880Z,1002.61
2018-11-13T03:31:10.922Z,1002.63
2018-11-13T03:32:10.919Z,1002.58
2018-11-13T03:33:10.942Z,1002.61
2018-11-13T03:34:10.965Z,1002.6
2018-11-13T03:35:10.985Z,1002.59
2018-11-13T03:36:11.016Z,1002.52
2018-11-13T03:37:11.032Z,1002.55
2018-11-13T03:38:11.057Z,1002.47
2018-11-13T03:39:11.104Z,1002.45
2018-11-13T03:40:11.105Z,1002.44
2018-11-13T03:41:11.120Z,1002.45
2018-11-13T03:42:11.141Z,1002.4
2018-11-13T03:43:11.162Z,1002.45
2018-11-13T03:44:11.186Z,1002.41
2018-11-13T03:45:11.214Z,1002.4
2018-11-13T03:46:11.233Z,1002.39
2018-11-13T03:47:11.252Z,1002.39
2018-11-13T03:48:11.276Z,1002.42
2018-11-13T03:49:11.296Z,1002.46
2018-11-13T03:50:11.318Z,1002.52
2018-11-13T03:51:11.342Z,1002.55
2018-11-13T03:52:11.367Z,1002.61
2018-11-13T03:53:11.384Z,1002.63
2018-11-13T03:54:11.412Z,1002.63
2018-11-13T03:55:11.431Z,1002.65
2018-11-13T03:56:11.453Z,1002.63
2018-11-13T03:57:11.479Z,1002.63
2018-11-13T03:58:11.496Z,1002.65
2018-11-13T03:59:11.521Z,1002.7
2018-11-13T04:00:11.542Z,1002.72
2018-11-13T04:01:11.562Z,1002.72
2018-11-13T04:02:11.585Z,1002.72
2018-11-13T04:03:11.609Z,1002.7
2018-11-13T04:04:11.629Z,1002.62
2018-11-13T04:05:11.655Z,1002.62
2018-11-13T04:06:11.674Z,1002.68
2018-11-13T04:07:11.698Z,1002.69
2018-11-13T04:08:11.719Z,1002.68
2018-11-13T04:09:11.745Z,1002.75
2018-11-13T04:10:11.767Z,1002.76
2018-11-13T04:11:11.793Z,1002.81
2018-11-13T04:12:11.811Z,1002.84
2018-11-13T04:13:11.829Z,1002.82
2018-11-13T04:14:11.853Z,1002.88
2018-11-13T04:15:11.879Z,1002.93
2018-11-13T04:16:11.896Z,1002.9
2018-11-13T04:17:11.927Z,1002.89
2018-11-13T04:18:11.940Z,1002.96
2018-11-13T04:19:11.962Z,1002.95
2018-11-13T04:20:11.986Z,1002.93
2018-11-13T04:21:12.007Z,1002.96
2018-11-13T04:22:12.034Z,1002.95
2018-11-13T04:23:12.052Z,1003.07
2018-11-13T04:24:12.082Z,1003.17
2018-11-13T04:25:12.101Z,1003.19
2018-11-13T04:26:12.121Z,1003.24
2018-11-13T04:27:12.145Z,1003.21
2018-11-13T04:28:12.170Z,1003.22
2018-11-13T04:29:12.189Z,1003.22
2018-11-13T04:30:12.213Z,1003.25
2018-11-13T04:31:12.229Z,1003.19
2018-11-13T04:32:12.264Z,1003.15
2018-11-13T04:33:12.288Z,1003.17
2018-11-13T04:34:12.295Z,1003.14
2018-11-13T04:35:12.318Z,1003.1
2018-11-13T04:36:12.346Z,1003.02
2018-11-13T04:37:12.366Z,1003
2018-11-13T04:38:12.405Z,1002.97
2018-11-13T04:39:12.407Z,1002.96
2018-11-13T04:40:12.429Z,1002.96
2018-11-13T04:41:12.449Z,1003.02
2018-11-13T04:42:12.473Z,1003.07
2018-11-13T04:43:12.494Z,1003.05
2018-11-13T04:44:12.521Z,1003.04
2018-11-13T04:45:12.543Z,1003.01
2018-11-13T04:46:12.561Z,1003.02
2018-11-13T04:47:12.584Z,1003.01
2018-11-13T04:48:12.604Z,1002.98
2018-11-13T04:49:12.625Z,1002.97
2018-11-13T04:50:12.652Z,1002.93
2018-11-13T04:51:12.674Z,1002.98
2018-11-13T04:52:12.697Z,1002.98
2018-11-13T04:53:12.714Z,1002.98
2018-11-13T04:54:12.736Z,1003.01
2018-11-13T04:55:12.763Z,1003.02
2018-11-13T04:56:12.786Z,1003.01
2018-11-13T04:57:12.803Z,1003.01
2018-11-13T04:58:12.828Z,1003.02
2018-11-13T04:59:12.845Z,1003.02
2018-11-13T05:00:12.868Z,1003.03
2018-11-13T05:01:12.890Z,1003
2018-11-13T05:02:12.912Z,1003.05
2018-11-13T05:03:12.933Z,1003.01
2018-11-13T05:04:12.957Z,1002.94
2018-11-13T05:05:12.979Z,1002.9
2018-11-13T05:06:13.000Z,1002.9
2018-11-13T05:07:13.027Z,1002.89
2018-11-13T05:08:13.044Z,1002.94
2018-11-13T05:09:13.071Z,1002.99
2018-11-13T05:10:13.214Z,1003
2018-11-13T05:11:13.111Z,1002.93
2018-11-13T05:12:13.136Z,1002.89
2018-11-13T05:13:13.155Z,1002.94
2018-11-13T05:14:13.176Z,1002.92
2018-11-13T05:15:13.198Z,1002.87
2018-11-13T05:16:13.227Z,1002.89
2018-11-13T05:17:13.241Z,1002.9
2018-11-13T05:18:13.269Z,1002.83
2018-11-13T05:19:13.286Z,1002.87
2018-11-13T05:20:13.308Z,1002.83
2018-11-13T05:21:13.329Z,1002.82
2018-11-13T05:22:13.354Z,1002.84
2018-11-13T05:23:13.491Z,1002.86
2018-11-13T05:24:13.397Z,1002.9
2018-11-13T05:25:13.420Z,1002.9
2018-11-13T05:26:13.447Z,1002.93
2018-11-13T05:27:13.465Z,1002.9
2018-11-13T05:28:13.487Z,1002.89
2018-11-13T05:29:13.510Z,1002.94
2018-11-13T05:30:13.533Z,1003.04
2018-11-13T05:31:13.550Z,1003.16
2018-11-13T05:32:13.574Z,1003.3
2018-11-13T05:33:13.597Z,1003.35
2018-11-13T05:34:13.619Z,1003.41
2018-11-13T05:35:13.636Z,1003.42
2018-11-13T05:36:13.659Z,1003.44
2018-11-13T05:37:13.683Z,1003.47
2018-11-13T05:38:13.711Z,1003.46
2018-11-13T05:39:13.729Z,1003.5
2018-11-13T05:40:13.746Z,1003.47
2018-11-13T05:41:13.768Z,1003.53
2018-11-13T05:42:13.792Z,1003.58
2018-11-13T05:43:13.812Z,1003.62
2018-11-13T05:44:13.843Z,1003.67
2018-11-13T05:45:13.861Z,1003.72
2018-11-13T05:46:13.879Z,1003.81
2018-11-13T05:47:14.009Z,1003.74
2018-11-13T05:48:13.922Z,1003.81
2018-11-13T05:49:13.950Z,1003.8
2018-11-13T05:50:13.974Z,1003.77
2018-11-13T05:51:13.987Z,1003.79
2018-11-13T05:52:14.014Z,1003.84
2018-11-13T05:53:14.037Z,1003.91
2018-11-13T05:54:14.059Z,1003.92
2018-11-13T05:55:14.081Z,1003.96
2018-11-13T05:56:14.098Z,1003.95
2018-11-13T05:57:14.126Z,1003.94
2018-11-13T05:58:14.144Z,1003.94
2018-11-13T05:59:14.166Z,1003.87
2018-11-13T06:00:14.188Z,1003.85
2018-11-13T06:01:14.209Z,1003.85
2018-11-13T06:02:14.231Z,1003.81
2018-11-13T06:03:14.259Z,1003.75
2018-11-13T06:04:14.276Z,1003.76
2018-11-13T06:05:14.296Z,1003.82
2018-11-13T06:06:14.322Z,1003.82
2018-11-13T06:07:14.344Z,1003.8
2018-11-13T06:08:14.362Z,1003.78
2018-11-13T06:09:14.385Z,1003.8
2018-11-13T06:10:14.414Z,1003.81
2018-11-13T06:11:14.429Z,1003.79
2018-11-13T06:12:14.454Z,1003.79
2018-11-13T06:13:14.477Z,1003.83
2018-11-13T06:14:14.546Z,1003.83
2018-11-13T06:15:14.517Z,1003.89
2018-11-13T06:16:14.542Z,1003.85
2018-11-13T06:17:14.559Z,1003.84
2018-11-13T06:18:14.644Z,1003.84
2018-11-13T06:19:14.607Z,1003.82
2018-11-13T06:20:14.629Z,1003.8
2018-11-13T06:21:14.649Z,1003.85
2018-11-13T06:22:14.674Z,1003.88
2018-11-13T06:23:14.699Z,1003.88
2018-11-13T06:24:14.713Z,1003.86
2018-11-13T06:25:14.739Z,1003.89
2018-11-13T06:26:14.758Z,1003.94
2018-11-13T06:27:14.780Z,1003.93
2018-11-13T06:28:14.806Z,1003.94
2018-11-13T06:29:14.823Z,1003.87
2018-11-13T06:30:14.844Z,1003.89
2018-11-13T06:31:14.867Z,1003.83
2018-11-13T06:32:14.891Z,1003.84
2018-11-13T06:33:14.915Z,1003.87
2018-11-13T06:34:14.933Z,1003.87
2018-11-13T06:35:14.954Z,1003.94
2018-11-13T06:36:14.978Z,1003.95
2018-11-13T06:37:14.999Z,1003.99
2018-11-13T06:38:15.024Z,1004.06
2018-11-13T06:39:15.042Z,1004.09
2018-11-13T06:40:15.065Z,1004.12
2018-11-13T06:41:15.087Z,1004.18
2018-11-13T06:42:15.107Z,1004.21
2018-11-13T06:43:15.138Z,1004.22
2018-11-13T06:44:15.154Z,1004.21
2018-11-13T06:45:15.173Z,1004.18
2018-11-13T06:46:15.195Z,1004.12
2018-11-13T06:47:15.219Z,1004.14
2018-11-13T06:48:15.248Z,1004.17
2018-11-13T06:49:15.389Z,1004.23
2018-11-13T06:50:15.285Z,1004.28
2018-11-13T06:51:15.305Z,1004.29
2018-11-13T06:52:15.335Z,1004.26
2018-11-13T06:53:15.351Z,1004.28
2018-11-13T06:54:15.370Z,1004.27
2018-11-13T06:55:15.394Z,1004.33
2018-11-13T06:56:15.418Z,1004.32
2018-11-13T06:57:15.437Z,1004.27
2018-11-13T06:58:15.463Z,1004.26
2018-11-13T06:59:15.484Z,1004.2
2018-11-13T07:00:15.505Z,1004.24
2018-11-13T07:01:15.528Z,1004.19
2018-11-13T07:02:15.550Z,1004.23
2018-11-13T07:03:15.567Z,1004.24
2018-11-13T07:04:15.588Z,1004.31
2018-11-13T07:05:15.773Z,1004.38
2018-11-13T07:06:15.638Z,1004.37
2018-11-13T07:07:15.658Z,1004.32
2018-11-13T07:08:15.677Z,1004.31
2018-11-13T07:09:15.699Z,1004.3
2018-11-13T07:10:15.722Z,1004.28
2018-11-13T07:11:15.829Z,1004.26
2018-11-13T07:12:15.764Z,1004.24
2018-11-13T07:13:15.786Z,1004.28
2018-11-13T07:14:15.809Z,1004.33
2018-11-13T07:15:15.831Z,1004.3
2018-11-13T07:16:15.856Z,1004.37
2018-11-13T07:17:15.876Z,1004.41
2018-11-13T07:18:15.947Z,1004.39
2018-11-13T07:19:15.918Z,1004.48
2018-11-13T07:20:15.939Z,1004.42
2018-11-13T07:21:15.963Z,1004.43
2018-11-13T07:22:15.988Z,1004.47
2018-11-13T07:23:16.006Z,1004.53
2018-11-13T07:24:16.029Z,1004.54
2018-11-13T07:25:16.130Z,1004.64
2018-11-13T07:26:16.070Z,1004.64
2018-11-13T07:27:16.126Z,1004.63
2018-11-13T07:28:16.115Z,1004.63
2018-11-13T07:29:16.138Z,1004.63
2018-11-13T07:30:16.160Z,1004.64
2018-11-13T07:31:16.206Z,1004.69
2018-11-13T07:32:16.204Z,1004.67
2018-11-13T07:33:16.233Z,1004.74
2018-11-13T07:34:16.269Z,1004.72
2018-11-13T07:35:16.272Z,1004.73
2018-11-13T07:36:16.294Z,1004.73
2018-11-13T07:37:16.319Z,1004.74
2018-11-13T07:38:16.335Z,1004.73
2018-11-13T07:39:16.358Z,1004.73
2018-11-13T07:40:16.383Z,1004.74
2018-11-13T07:41:16.530Z,1004.72
2018-11-13T07:42:16.425Z,1004.72
2018-11-13T07:43:16.448Z,1004.7
2018-11-13T07:44:16.470Z,1004.63
2018-11-13T07:45:16.496Z,1004.68
2018-11-13T07:46:16.515Z,1004.71
2018-11-13T07:47:16.572Z,1004.72
2018-11-13T07:48:16.554Z,1004.76
2018-11-13T07:49:16.576Z,1004.8
2018-11-13T07:50:16.598Z,1004.82
2018-11-13T07:51:16.761Z,1004.82
2018-11-13T07:52:16.646Z,1004.78
2018-11-13T07:53:16.664Z,1004.76
2018-11-13T07:54:16.685Z,1004.73
2018-11-13T07:55:16.710Z,1004.76
2018-11-13T07:56:16.730Z,1004.77
2018-11-13T07:57:16.752Z,1004.81
2018-11-13T07:58:16.777Z,1004.85
2018-11-13T07:59:16.795Z,1004.84
2018-11-13T08:00:16.817Z,1004.84
2018-11-13T08:01:16.885Z,1004.9
2018-11-13T08:02:16.864Z,1004.93
2018-11-13T08:03:16.911Z,1004.93
2018-11-13T08:04:16.910Z,1004.94
2018-11-13T08:05:16.926Z,1004.98
2018-11-13T08:06:17.015Z,1004.93
2018-11-13T08:07:17.025Z,1004.98
2018-11-13T08:08:16.993Z,1004.94
2018-11-13T08:09:17.083Z,1004.94
2018-11-13T08:10:17.041Z,1004.96
2018-11-13T08:11:17.058Z,1004.98
2018-11-13T08:12:17.083Z,1004.94
2018-11-13T08:13:17.342Z,1005.05
2018-11-13T08:14:17.125Z,1005.02
2018-11-13T08:15:17.150Z,1005.05
2018-11-13T08:16:17.171Z,1005.06
2018-11-13T08:17:17.199Z,1005.04
2018-11-13T08:18:17.246Z,1005.04
2018-11-13T08:19:17.234Z,1005.06
2018-11-13T08:20:17.258Z,1005.03
2018-11-13T08:21:17.282Z,1005.06
2018-11-13T08:22:17.378Z,1005.09
2018-11-13T08:23:17.323Z,1005.09
2018-11-13T08:24:17.343Z,1005.07
2018-11-13T08:25:17.404Z,1005.12
2018-11-13T08:26:17.430Z,1005.16
2018-11-13T08:27:17.408Z,1005.15
2018-11-13T08:28:17.490Z,1005.17
2018-11-13T08:29:17.518Z,1005.16
2018-11-13T08:30:17.477Z,1005.15
2018-11-13T08:31:17.543Z,1005.17
2018-11-13T08:32:17.517Z,1005.18
2018-11-13T08:33:17.603Z,1005.19
2018-11-13T08:34:17.563Z,1005.17
2018-11-13T08:35:17.584Z,1005.07
2018-11-13T08:36:17.612Z,1005.1
2018-11-13T08:37:17.629Z,1005.06
2018-11-13T08:38:17.653Z,1005.1
2018-11-13T08:39:17.671Z,1005.17
2018-11-13T08:40:17.697Z,1005.1
2018-11-13T08:41:17.722Z,1005.21
2018-11-13T08:42:17.736Z,1005.18
2018-11-13T08:43:17.763Z,1005.2
2018-11-13T08:44:17.836Z,1005.17
2018-11-13T08:45:17.808Z,1005.17
2018-11-13T08:46:17.825Z,1005.2
2018-11-13T08:47:17.849Z,1005.19
2018-11-13T08:48:17.869Z,1005.22
2018-11-13T08:49:17.893Z,1005.2
2018-11-13T08:50:17.950Z,1005.18
2018-11-13T08:51:17.939Z,1005.2
2018-11-13T08:52:17.956Z,1005.19
2018-11-13T08:53:17.984Z,1005.12
2018-11-13T08:54:18.004Z,1005.15
2018-11-13T08:55:18.029Z,1005.16
2018-11-13T08:56:18.044Z,1005.16
2018-11-13T08:57:18.064Z,1005.1
2018-11-13T08:58:18.136Z,1005.18
2018-11-13T08:59:18.283Z,1005.15
2018-11-13T09:00:18.130Z,1005.17
2018-11-13T09:01:18.155Z,1005.18
2018-11-13T09:02:18.178Z,1005.22
2018-11-13T09:03:18.202Z,1005.21
2018-11-13T09:04:18.217Z,1005.21
2018-11-13T09:05:18.349Z,1005.25
2018-11-13T09:06:18.262Z,1005.27
2018-11-13T09:07:18.285Z,1005.27
2018-11-13T09:08:18.305Z,1005.34
2018-11-13T09:09:18.331Z,1005.31
2018-11-13T09:10:18.351Z,1005.32
2018-11-13T09:11:18.405Z,1005.33
2018-11-13T09:12:18.446Z,1005.27
2018-11-13T09:13:18.421Z,1005.33
2018-11-13T09:14:18.442Z,1005.33
2018-11-13T09:15:18.458Z,1005.35
2018-11-13T09:16:18.482Z,1005.34
2018-11-13T09:17:18.505Z,1005.38
2018-11-13T09:18:18.525Z,1005.35
2018-11-13T09:19:18.668Z,1005.38
2018-11-13T09:20:18.572Z,1005.46
2018-11-13T09:21:18.599Z,1005.47
2018-11-13T09:22:18.617Z,1005.43
2018-11-13T09:23:18.635Z,1005.53
2018-11-13T09:24:18.672Z,1005.66
2018-11-13T09:25:18.679Z,1005.64
2018-11-13T09:26:18.703Z,1005.54
2018-11-13T09:27:18.723Z,1005.54
2018-11-13T09:28:18.746Z,1005.6
2018-11-13T09:29:18.767Z,1005.59
2018-11-13T09:30:19.091Z,1005.61
2018-11-13T09:31:18.818Z,1005.64
2018-11-13T09:32:18.910Z,1005.61
2018-11-13T09:33:18.865Z,1005.75
2018-11-13T09:34:18.877Z,1005.69
2018-11-13T09:35:19.005Z,1005.68
2018-11-13T09:36:18.922Z,1005.71
2018-11-13T09:37:19.003Z,1005.73
2018-11-13T09:38:18.974Z,1005.72
2018-11-13T09:39:19.022Z,1005.64
2018-11-13T09:40:19.008Z,1005.65
2018-11-13T09:41:19.036Z,1005.69
2018-11-13T09:42:19.055Z,1005.66
2018-11-13T09:43:19.076Z,1005.68
2018-11-13T09:44:19.097Z,1005.65
2018-11-13T09:45:19.124Z,1005.71
2018-11-13T09:46:19.196Z,1005.67
2018-11-13T09:47:19.165Z,1005.68
2018-11-13T09:48:19.197Z,1005.75
2018-11-13T09:49:19.207Z,1005.69
2018-11-13T09:50:19.234Z,1005.7
2018-11-13T09:51:19.251Z,1005.71
2018-11-13T09:52:19.277Z,1005.83
2018-11-13T09:53:19.384Z,1005.77
2018-11-13T09:54:19.322Z,1005.85
2018-11-13T09:55:19.339Z,1005.91
2018-11-13T09:56:19.371Z,1005.86
2018-11-13T09:57:19.384Z,1005.79
2018-11-13T09:58:19.405Z,1005.87
2018-11-13T09:59:19.432Z,1005.83
2018-11-13T10:00:19.704Z,1005.82
2018-11-13T10:01:19.789Z,1005.9
2018-11-13T10:02:20.057Z,1005.89
2018-11-13T10:03:20.154Z,1005.94
2018-11-13T10:04:20.249Z,1005.83
2018-11-13T10:05:19.710Z,1005.95
2018-11-13T10:06:19.581Z,1005.91
2018-11-13T10:07:19.605Z,1005.93
2018-11-13T10:08:19.633Z,1005.99
2018-11-13T10:09:19.649Z,1005.92
2018-11-13T10:10:19.679Z,1005.87
2018-11-13T10:11:19.697Z,1005.87
2018-11-13T10:12:19.719Z,1005.96
2018-11-13T10:13:19.742Z,1005.86
2018-11-13T10:14:19.763Z,1005.92
2018-11-13T10:15:19.781Z,1005.92
2018-11-13T10:16:19.803Z,1005.92
2018-11-13T10:17:19.935Z,1005.95
2018-11-13T10:18:20.086Z,1005.99
2018-11-13T10:19:19.875Z,1005.93
2018-11-13T10:20:19.892Z,1005.9
2018-11-13T10:21:19.915Z,1005.96
2018-11-13T10:22:19.988Z,1005.97
2018-11-13T10:23:19.959Z,1005.97
2018-11-13T10:24:19.980Z,1006.04
2018-11-13T10:25:20.004Z,1006.01
2018-11-13T10:26:20.127Z,1005.97
2018-11-13T10:27:20.051Z,1006
2018-11-13T10:28:20.159Z,1005.97
2018-11-13T10:29:20.095Z,1005.97
2018-11-13T10:30:20.115Z,1006.05
2018-11-13T10:31:20.144Z,1005.97
2018-11-13T10:32:20.160Z,1006.03
2018-11-13T10:33:20.181Z,1005.95
2018-11-13T10:34:20.208Z,1005.97
2018-11-13T10:35:20.224Z,1006
2018-11-13T10:36:20.249Z,1006.04
2018-11-13T10:37:20.271Z,1005.99
2018-11-13T10:38:20.297Z,1005.98
2018-11-13T10:39:20.314Z,1005.99
2018-11-13T10:40:20.464Z,1005.97
2018-11-13T10:41:20.428Z,1005.95
2018-11-13T10:42:20.382Z,1005.98
2018-11-13T10:43:20.405Z,1005.9
2018-11-13T10:44:20.432Z,1005.93
2018-11-13T10:45:20.449Z,1005.96
2018-11-13T10:46:20.470Z,1005.93
2018-11-13T10:47:20.498Z,1005.98
2018-11-13T10:48:20.519Z,1005.96
2018-11-13T10:49:20.541Z,1005.91
2018-11-13T10:50:20.702Z,1006.06
2018-11-13T10:51:20.582Z,1006.02
2018-11-13T10:52:20.609Z,1005.95
2018-11-13T10:53:20.632Z,1005.93
2018-11-13T10:54:20.650Z,1005.86
2018-11-13T10:55:20.680Z,1005.92
2018-11-13T10:56:20.707Z,1005.89
2018-11-13T10:57:20.717Z,1005.96
2018-11-13T10:58:20.776Z,1005.94
2018-11-13T10:59:20.776Z,1005.95
2018-11-13T11:00:20.789Z,1005.98
2018-11-13T11:01:20.807Z,1005.93
2018-11-13T11:02:20.911Z,1005.91
2018-11-13T11:03:20.858Z,1006
2018-11-13T11:04:20.904Z,1005.96
2018-11-13T11:05:20.899Z,1005.9
2018-11-13T11:06:20.919Z,1005.86
2018-11-13T11:07:20.945Z,1005.87
2018-11-13T11:08:21.013Z,1005.9
2018-11-13T11:09:20.984Z,1005.89
2018-11-13T11:10:21.011Z,1005.9
2018-11-13T11:11:21.064Z,1005.91
2018-11-13T11:12:21.053Z,1005.93
2018-11-13T11:13:21.381Z,1005.92
2018-11-13T11:14:21.101Z,1005.98
2018-11-13T11:15:21.118Z,1006.05
2018-11-13T11:16:21.147Z,1006.02
2018-11-13T11:17:21.164Z,1006.07
2018-11-13T11:18:21.187Z,1006.05
2018-11-13T11:19:21.321Z,1006
2018-11-13T11:20:21.229Z,1006.04
2018-11-13T11:21:21.254Z,1006.01
2018-11-13T11:22:21.279Z,1006.12
2018-11-13T11:23:21.331Z,1006.12
2018-11-13T11:24:21.478Z,1006.13
2018-11-13T11:25:21.431Z,1006.09
2018-11-13T11:26:21.380Z,1006.11
2018-11-13T11:27:21.392Z,1006.13
2018-11-13T11:28:21.412Z,1006.15
2018-11-13T11:29:21.430Z,1006.16
2018-11-13T11:30:21.453Z,1006.17
2018-11-13T11:31:21.481Z,1006.13
2018-11-13T11:32:21.496Z,1006.14
2018-11-13T11:33:21.520Z,1006.14
2018-11-13T11:34:21.541Z,1006.2
2018-11-13T11:35:21.564Z,1006.19
2018-11-13T11:36:21.590Z,1006.18
2018-11-13T11:37:21.608Z,1006.2
2018-11-13T11:38:21.674Z,1006.19
2018-11-13T11:39:21.764Z,1006.21
2018-11-13T11:40:21.677Z,1006.12
2018-11-13T11:41:21.699Z,1006.04
2018-11-13T11:42:21.720Z,1006.04
2018-11-13T11:43:21.743Z,1005.99
2018-11-13T11:44:21.805Z,1006
2018-11-13T11:45:21.788Z,1006.11
2018-11-13T11:46:21.810Z,1006.09
2018-11-13T11:47:21.832Z,1006.09
2018-11-13T11:48:21.860Z,1006.07
2018-11-13T11:49:21.876Z,1006.1
2018-11-13T11:50:21.901Z,1006.09
2018-11-13T11:51:21.923Z,1006.04
2018-11-13T11:52:21.944Z,1006.03
2018-11-13T11:53:21.966Z,1006.04
2018-11-13T11:54:21.989Z,1006.01
2018-11-13T11:55:22.011Z,1005.99
2018-11-13T11:56:22.037Z,1005.99
2018-11-13T11:57:22.059Z,1006.03
2018-11-13T11:58:22.078Z,1006.01
2018-11-13T11:59:22.101Z,1006.02
2018-11-13T12:00:22.143Z,1005.94
2018-11-13T12:01:22.148Z,1006.01
2018-11-13T12:02:22.281Z,1006.01
2018-11-13T12:03:22.190Z,1005.93
2018-11-13T12:04:22.212Z,1005.96
2018-11-13T12:05:22.236Z,1006.01
2018-11-13T12:06:22.258Z,1005.95
2018-11-13T12:07:22.280Z,1005.99
2018-11-13T12:08:22.307Z,1005.86